createdAt,value
2022-11-01T00:01:10.861Z,6.90
2022-11-01T00:03:54.723Z,6.10
2022-11-01T00:06:29.337Z,6.88
2022-11-01T00:09:07.441Z,7.63
2022-11-01T00:11:54.958Z,7.68
2022-11-01T00:15:13.512Z,9.93
2022-11-01T00:18:18.472Z,5.68
2022-11-01T00:21:19.651Z,6.78
2022-11-01T00:23:53.961Z,7.47
2022-11-01T00:27:12.351Z,5.53
2022-11-01T00:30:58.680Z,6.38
2022-11-01T00:33:55.775Z,6.07
2022-11-01T00:36:54.477Z,7.55
2022-11-01T00:44:18.184Z,9.23
2022-11-01T00:47:24.366Z,6.93
2022-11-01T00:50:00.035Z,6.72
2022-11-01T00:52:36.826Z,5.72
2022-11-01T00:55:18.962Z,5.53
2022-11-01T00:58:01.164Z,5.00
2022-11-01T01:00:36.188Z,5.40
2022-11-01T01:03:12.800Z,6.97
2022-11-01T01:05:53.362Z,7.38
2022-11-01T01:09:35.142Z,4.85
2022-11-01T01:12:30.334Z,6.05
2022-11-01T01:15:05.569Z,5.00
2022-11-01T01:17:48.882Z,6.80
2022-11-01T01:21:40.776Z,5.88
2022-11-01T01:24:32.989Z,7.28
2022-11-01T01:27:30.439Z,5.80
2022-11-01T01:30:30.245Z,7.20
2022-11-01T01:35:48.796Z,9.75
2022-11-01T01:38:23.025Z,6.35
2022-11-01T01:41:16.327Z,9.52
2022-11-01T01:43:50.804Z,5.97
2022-11-01T01:51:15.617Z,5.57
2022-11-01T01:54:01.911Z,5.63
2022-11-01T01:57:48.139Z,5.43
2022-11-01T02:01:19.782Z,5.38
2022-11-01T02:04:34.500Z,5.80
2022-11-01T02:07:09.430Z,4.60
2022-11-01T02:09:44.860Z,5.97
2022-11-01T02:12:32.599Z,5.43
2022-11-01T02:15:13.568Z,5.45
2022-11-01T02:18:13.739Z,6.20
2022-11-01T02:25:31.951Z,6.10
2022-11-01T02:28:29.718Z,5.82
2022-11-01T02:31:24.250Z,7.13
2022-11-01T02:34:45.252Z,5.80
2022-11-01T02:37:31.785Z,6.03
2022-11-01T02:40:12.836Z,5.15
2022-11-01T02:42:57.319Z,7.28
2022-11-01T02:45:58.499Z,8.48
2022-11-01T02:48:32.955Z,4.72
2022-11-01T02:51:23.991Z,4.97
2022-11-01T02:58:16.114Z,3.72
2022-11-01T03:01:36.370Z,5.72
2022-11-01T03:08:27.183Z,6.93
2022-11-01T03:11:08.105Z,5.43
2022-11-01T03:18:06.472Z,4.82
2022-11-01T03:21:25.357Z,5.93
2022-11-01T03:24:19.952Z,5.53
2022-11-01T03:27:06.488Z,6.30
2022-11-01T03:33:50.657Z,8.00
2022-11-01T03:37:30.557Z,5.05
2022-11-01T03:40:18.161Z,6.78
2022-11-01T03:43:11.602Z,6.05
2022-11-01T03:45:46.605Z,9.70
2022-11-01T03:49:14.668Z,4.78
2022-11-01T03:51:49.976Z,5.70
2022-11-01T03:54:24.250Z,6.70
2022-11-01T03:57:00.094Z,5.53
2022-11-01T03:59:43.020Z,6.28
2022-11-01T04:02:36.506Z,5.55
2022-11-01T04:05:13.400Z,5.95
2022-11-01T04:07:49.536Z,6.75
2022-11-01T04:10:27.602Z,5.80
2022-11-01T04:13:08.544Z,5.88
2022-11-01T04:16:00.718Z,7.20
2022-11-01T04:18:55.039Z,4.95
2022-11-01T04:21:32.069Z,9.07
2022-11-01T04:24:07.808Z,6.10
2022-11-01T04:26:43.158Z,6.22
2022-11-01T04:29:20.340Z,8.20
2022-11-01T04:32:12.909Z,7.38
2022-11-01T04:34:55.066Z,6.25
2022-11-01T04:37:31.717Z,6.90
2022-11-01T04:40:32.925Z,6.40
2022-11-01T04:43:07.332Z,6.18
2022-11-01T04:45:43.126Z,9.25
2022-11-01T04:48:17.908Z,6.20
2022-11-01T04:51:04.468Z,5.40
2022-11-01T04:53:42.965Z,5.53
2022-11-01T04:56:18.960Z,5.75
2022-11-01T04:58:53.680Z,9.32
2022-11-01T05:01:32.489Z,5.97
2022-11-01T05:04:07.164Z,6.10
2022-11-01T05:06:48.917Z,6.70
2022-11-01T05:09:48.574Z,9.75
2022-11-01T05:13:24.356Z,8.93
2022-11-01T05:17:00.286Z,11.05
2022-11-01T05:24:02.195Z,9.23
2022-11-01T05:26:36.948Z,9.82
2022-11-01T05:29:24.765Z,9.05
2022-11-01T05:32:13.228Z,6.82
2022-11-01T05:35:06.991Z,9.20
2022-11-01T05:37:49.018Z,7.80
2022-11-01T05:41:30.284Z,8.45
2022-11-01T05:44:14.504Z,7.07
2022-11-01T05:47:18.681Z,6.53
2022-11-01T05:50:14.493Z,6.85
2022-11-01T05:57:33.401Z,6.28
2022-11-01T06:00:13.962Z,5.65
2022-11-01T06:02:48.462Z,6.93
2022-11-01T06:05:23.063Z,6.63
2022-11-01T06:16:26.431Z,5.80
2022-11-01T06:27:25.121Z,5.55
2022-11-01T06:34:07.025Z,5.82
2022-11-01T06:37:36.379Z,2.67
2022-11-01T06:44:16.339Z,5.30
2022-11-01T06:47:01.105Z,6.47
2022-11-01T06:49:50.787Z,3.30
2022-11-01T06:57:39.658Z,4.97
2022-11-01T07:01:07.829Z,7.28
2022-11-01T07:07:57.143Z,3.60
2022-11-01T07:11:12.541Z,5.60
2022-11-01T07:15:05.261Z,2.88
2022-11-01T07:17:44.165Z,2.35
2022-11-01T07:20:19.180Z,3.78
2022-11-01T07:23:38.045Z,3.13
2022-11-01T07:26:13.213Z,2.80
2022-11-01T07:29:06.714Z,2.92
2022-11-01T07:31:43.075Z,2.45
2022-11-01T07:34:25.157Z,3.30
2022-11-01T07:41:14.474Z,2.63
2022-11-01T07:44:13.373Z,3.03
2022-11-01T07:46:55.159Z,2.58
2022-11-01T07:49:29.963Z,2.53
2022-11-01T07:52:04.443Z,2.65
2022-11-01T07:54:38.830Z,2.80
2022-11-01T07:57:26.722Z,3.65
2022-11-01T08:00:01.087Z,2.55
2022-11-01T08:02:37.526Z,2.45
2022-11-01T08:05:12.855Z,2.80
2022-11-01T08:07:47.283Z,2.30
2022-11-01T08:14:35.886Z,1.67
2022-11-01T08:21:22.854Z,0.73
2022-11-01T08:28:37.520Z,1.58
2022-11-01T08:35:27.081Z,1.73
2022-11-01T08:42:14.814Z,0.80
2022-11-01T08:44:49.221Z,1.90
2022-11-01T08:47:58.557Z,0.70
2022-11-01T08:51:02.848Z,1.52
2022-11-01T08:53:37.473Z,2.25
2022-11-01T09:00:24.909Z,0.98
2022-11-01T09:03:01.388Z,0.73
2022-11-01T09:05:43.203Z,0.80
2022-11-01T09:08:26.627Z,1.40
2022-11-01T09:11:02.015Z,1.30
2022-11-01T09:13:58.489Z,0.93
2022-11-01T09:17:13.263Z,1.35
2022-11-01T09:23:55.311Z,0.80
2022-11-01T09:26:29.799Z,1.08
2022-11-01T09:29:14.681Z,1.13
2022-11-01T09:31:52.901Z,1.38
2022-11-01T09:34:31.483Z,2.40
2022-11-01T09:37:06.424Z,1.83
2022-11-01T09:40:03.389Z,3.40
2022-11-01T09:42:44.622Z,1.58
2022-11-01T09:45:23.578Z,1.83
2022-11-01T09:48:08.265Z,2.67
2022-11-01T09:50:43.980Z,1.13
2022-11-01T09:53:22.899Z,1.27
2022-11-01T10:00:15.848Z,1.33
2022-11-01T10:07:09.195Z,0.80
2022-11-01T10:14:00.036Z,0.73
2022-11-01T10:20:48.592Z,0.32
2022-11-01T10:27:47.048Z,0.70
2022-11-01T10:30:22.458Z,0.50
2022-11-01T10:33:27.119Z,0.90
2022-11-01T10:36:28.912Z,0.50
2022-11-01T10:46:29.413Z,0.35
2022-11-01T10:57:34.738Z,1.13
2022-11-01T11:00:29.083Z,0.73
2022-11-01T11:07:24.183Z,0.75
2022-11-01T11:14:08.857Z,1.27
2022-11-01T11:21:00.280Z,0.65
2022-11-01T11:27:52.716Z,0.60
2022-11-01T11:30:32.586Z,0.93
2022-11-01T11:33:08.485Z,0.50
2022-11-01T11:36:12.877Z,0.75
2022-11-01T11:38:49.117Z,0.38
2022-11-01T11:46:21.098Z,0.82
2022-11-01T11:49:27.449Z,0.70
2022-11-01T11:52:01.815Z,0.93
2022-11-01T11:54:54.963Z,0.50
2022-11-01T12:01:43.434Z,2.17
2022-11-01T12:08:38.696Z,1.05
2022-11-01T12:11:53.548Z,1.10
2022-11-01T12:14:43.871Z,1.80
2022-11-01T12:18:15.918Z,0.20
2022-11-01T12:21:28.477Z,0.65
2022-11-01T12:24:09.177Z,0.75
2022-11-01T12:27:07.043Z,1.25
2022-11-01T12:38:42.207Z,0.85
2022-11-01T12:42:15.470Z,1.33
2022-11-01T12:48:59.770Z,0.77
2022-11-01T12:55:48.657Z,1.45
2022-11-01T13:03:02.704Z,2.08
2022-11-01T13:07:03.986Z,0.57
2022-11-01T13:18:52.069Z,1.02
2022-11-01T13:29:59.302Z,1.30
2022-11-01T13:41:09.184Z,1.10
2022-11-01T13:48:04.639Z,1.83
2022-11-01T13:54:59.895Z,1.15
2022-11-01T14:01:48.901Z,1.02
2022-11-01T14:08:34.189Z,1.60
2022-11-01T14:11:57.373Z,0.70
2022-11-01T14:19:20.762Z,1.48
2022-11-01T14:23:08.217Z,1.73
2022-11-01T14:29:55.942Z,1.90
2022-11-01T14:40:58.395Z,0.68
2022-11-01T14:47:47.286Z,2.33
2022-11-01T14:54:44.105Z,0.68
2022-11-01T15:01:34.455Z,2.95
2022-11-01T15:08:32.881Z,2.45
2022-11-01T15:11:57.814Z,2.63
2022-11-01T15:18:48.402Z,2.05
2022-11-01T15:25:35.906Z,2.10
2022-11-01T15:32:30.460Z,1.63
2022-11-01T15:43:27.033Z,1.83
2022-11-01T15:50:14.754Z,1.23
2022-11-01T15:57:09.642Z,2.28
2022-11-01T16:03:58.616Z,2.63
2022-11-01T16:07:22.442Z,2.17
2022-11-01T16:10:02.593Z,1.50
2022-11-01T16:17:02.370Z,1.70
2022-11-01T16:23:51.997Z,4.28
2022-11-01T16:30:46.442Z,4.38
2022-11-01T16:37:38.026Z,3.70
2022-11-01T16:41:40.937Z,7.25
2022-11-01T16:44:17.693Z,3.42
2022-11-01T16:46:56.142Z,3.20
2022-11-01T16:49:37.554Z,4.43
2022-11-01T16:52:31.080Z,2.72
2022-11-01T16:55:14.271Z,5.15
2022-11-01T16:58:30.864Z,12.30
2022-11-01T17:05:23.622Z,12.80
2022-11-01T17:12:09.742Z,9.40
2022-11-01T17:18:53.292Z,8.57
2022-11-01T17:25:46.835Z,3.80
2022-11-01T17:32:49.578Z,3.35
2022-11-01T17:36:30.862Z,7.72
2022-11-01T17:39:37.882Z,6.63
2022-11-01T17:42:32.554Z,8.75
2022-11-01T17:49:16.214Z,4.40
2022-11-01T17:56:03.101Z,6.75
2022-11-01T18:02:51.280Z,3.78
2022-11-01T18:05:43.844Z,6.65
2022-11-01T18:08:46.677Z,3.88
2022-11-01T18:16:18.163Z,6.35
2022-11-01T18:23:05.496Z,6.57
2022-11-01T18:29:52.633Z,3.08
2022-11-01T18:32:50.853Z,3.47
2022-11-01T18:35:36.211Z,2.88
2022-11-01T18:38:25.959Z,4.72
2022-11-01T18:41:49.801Z,3.33
2022-11-01T18:44:32.412Z,4.70
2022-11-01T18:51:26.495Z,3.38
2022-11-01T18:58:17.489Z,3.05
2022-11-01T19:05:17.968Z,4.95
2022-11-01T19:12:30.951Z,3.50
2022-11-01T19:19:18.017Z,2.90
2022-11-01T19:26:06.280Z,4.82
2022-11-01T19:32:56.392Z,4.68
2022-11-01T19:43:59.587Z,5.45
2022-11-01T19:50:50.087Z,4.68
2022-11-01T19:57:49.696Z,3.85
2022-11-01T20:00:34.702Z,3.53
2022-11-01T20:07:27.010Z,4.32
2022-11-01T20:14:07.199Z,3.45
2022-11-01T20:25:10.833Z,4.03
2022-11-01T20:31:58.611Z,4.07
2022-11-01T20:42:56.938Z,4.47
2022-11-01T20:46:37.004Z,5.47
2022-11-01T20:57:48.398Z,4.85
2022-11-01T21:01:10.778Z,8.68
2022-11-01T21:04:19.492Z,5.40
2022-11-01T21:07:23.499Z,4.22
2022-11-01T21:09:58.372Z,6.15
2022-11-01T21:16:46.602Z,2.55
2022-11-01T21:19:27.891Z,3.58
2022-11-01T21:22:16.994Z,5.00
2022-11-01T21:24:51.919Z,3.55
2022-11-01T21:27:40.062Z,3.92
2022-11-01T21:30:37.175Z,3.97
2022-11-01T21:33:33.264Z,4.07
2022-11-01T21:36:50.788Z,1.88
2022-11-01T21:39:27.009Z,2.80
2022-11-01T21:42:05.933Z,4.38
2022-11-01T21:44:58.690Z,2.67
2022-11-01T21:47:52.490Z,2.47
2022-11-01T21:54:42.867Z,2.42
2022-11-01T22:09:51.591Z,1.80
2022-11-01T22:16:38.747Z,2.58
2022-11-01T22:20:29.620Z,1.40
2022-11-01T22:23:06.884Z,2.88
2022-11-01T22:25:45.265Z,1.88
2022-11-01T22:28:19.628Z,2.13
2022-11-01T22:30:53.913Z,1.02
2022-11-01T22:33:32.611Z,0.98
2022-11-01T22:40:20.734Z,1.83
2022-11-01T22:44:11.601Z,1.92
2022-11-01T22:47:27.572Z,2.17
2022-11-01T22:50:26.594Z,1.27
2022-11-01T22:54:00.745Z,2.05
2022-11-01T22:57:19.377Z,1.30
2022-11-01T23:00:32.126Z,0.68
2022-11-01T23:03:39.731Z,1.63
2022-11-01T23:06:34.765Z,1.70
2022-11-01T23:09:19.892Z,4.68
2022-11-01T23:12:14.056Z,1.42
2022-11-01T23:14:48.805Z,2.00
2022-11-01T23:17:26.324Z,1.88
2022-11-01T23:20:04.048Z,3.30
2022-11-01T23:22:50.118Z,2.80
2022-11-01T23:25:32.649Z,3.40
2022-11-01T23:28:07.643Z,3.60
2022-11-01T23:30:45.501Z,1.80
2022-11-01T23:33:23.436Z,1.02
2022-11-01T23:36:03.437Z,1.92
2022-11-01T23:39:09.081Z,2.38
2022-11-01T23:45:56.200Z,2.05
2022-11-01T23:52:55.068Z,4.55
2022-11-01T23:55:47.879Z,1.40
2022-11-01T23:58:33.812Z,2.90
